sensor_id;sensor_type;location;lat;lon;timestamp;P1;durP1;ratioP1;P2;durP2;ratioP2
64894;SDS011;51588;53.702;10.208;2023-07-30T00:00:31;3.60;;;3.30;;
64894;SDS011;51588;53.702;10.208;2023-07-30T00:02:57;3.63;;;3.33;;
64894;SDS011;51588;53.702;10.208;2023-07-30T00:05:23;3.37;;;2.80;;
64894;SDS011;51588;53.702;10.208;2023-07-30T00:07:50;3.47;;;3.13;;
64894;SDS011;51588;53.702;10.208;2023-07-30T00:10:17;3.90;;;3.10;;
64894;SDS011;51588;53.702;10.208;2023-07-30T00:12:44;4.33;;;3.57;;
64894;SDS011;51588;53.702;10.208;2023-07-30T00:15:10;4.27;;;3.20;;
64894;SDS011;51588;53.702;10.208;2023-07-30T00:17:38;3.60;;;3.30;;
64894;SDS011;51588;53.702;10.208;2023-07-30T00:20:05;3.37;;;3.07;;
64894;SDS011;51588;53.702;10.208;2023-07-30T00:22:31;3.40;;;2.90;;
64894;SDS011;51588;53.702;10.208;2023-07-30T00:24:58;3.10;;;2.80;;
64894;SDS011;51588;53.702;10.208;2023-07-30T00:27:25;3.20;;;2.90;;
64894;SDS011;51588;53.702;10.208;2023-07-30T00:29:52;2.93;;;2.67;;
64894;SDS011;51588;53.702;10.208;2023-07-30T00:32:18;2.90;;;2.70;;
64894;SDS011;51588;53.702;10.208;2023-07-30T00:34:44;3.00;;;2.70;;
64894;SDS011;51588;53.702;10.208;2023-07-30T00:37:11;2.67;;;2.47;;
64894;SDS011;51588;53.702;10.208;2023-07-30T00:39:37;3.30;;;2.87;;
64894;SDS011;51588;53.702;10.208;2023-07-30T00:42:04;3.17;;;2.40;;
64894;SDS011;51588;53.702;10.208;2023-07-30T00:44:31;2.80;;;2.60;;
64894;SDS011;51588;53.702;10.208;2023-07-30T00:46:58;2.90;;;2.40;;
64894;SDS011;51588;53.702;10.208;2023-07-30T00:49:24;2.50;;;2.30;;
64894;SDS011;51588;53.702;10.208;2023-07-30T00:51:51;2.70;;;2.50;;
64894;SDS011;51588;53.702;10.208;2023-07-30T00:54:17;2.67;;;2.47;;
64894;SDS011;51588;53.702;10.208;2023-07-30T00:56:51;2.67;;;2.47;;
64894;SDS011;51588;53.702;10.208;2023-07-30T00:59:17;2.83;;;2.60;;
64894;SDS011;51588;53.702;10.208;2023-07-30T01:01:45;4.10;;;2.80;;
64894;SDS011;51588;53.702;10.208;2023-07-30T01:04:12;2.90;;;2.60;;
64894;SDS011;51588;53.702;10.208;2023-07-30T01:06:38;2.60;;;2.40;;
64894;SDS011;51588;53.702;10.208;2023-07-30T01:09:05;2.73;;;2.30;;
64894;SDS011;51588;53.702;10.208;2023-07-30T01:11:31;3.00;;;2.80;;
64894;SDS011;51588;53.702;10.208;2023-07-30T01:13:57;3.20;;;2.90;;
64894;SDS011;51588;53.702;10.208;2023-07-30T01:16:24;2.53;;;2.33;;
64894;SDS011;51588;53.702;10.208;2023-07-30T01:18:52;2.57;;;2.37;;
64894;SDS011;51588;53.702;10.208;2023-07-30T01:21:20;2.60;;;2.40;;
64894;SDS011;51588;53.702;10.208;2023-07-30T01:23:46;2.40;;;2.20;;
64894;SDS011;51588;53.702;10.208;2023-07-30T01:26:16;3.07;;;2.60;;
64894;SDS011;51588;53.702;10.208;2023-07-30T01:28:46;2.57;;;2.37;;
64894;SDS011;51588;53.702;10.208;2023-07-30T01:31:14;2.57;;;2.37;;
64894;SDS011;51588;53.702;10.208;2023-07-30T01:33:41;6.73;;;2.30;;
64894;SDS011;51588;53.702;10.208;2023-07-30T01:36:07;2.40;;;2.20;;
64894;SDS011;51588;53.702;10.208;2023-07-30T01:38:36;2.63;;;2.43;;
64894;SDS011;51588;53.702;10.208;2023-07-30T01:41:03;2.40;;;2.20;;
64894;SDS011;51588;53.702;10.208;2023-07-30T01:43:30;2.67;;;2.30;;
64894;SDS011;51588;53.702;10.208;2023-07-30T01:45:56;2.93;;;2.63;;
64894;SDS011;51588;53.702;10.208;2023-07-30T01:48:23;2.70;;;2.40;;
64894;SDS011;51588;53.702;10.208;2023-07-30T01:50:49;2.73;;;2.53;;
64894;SDS011;51588;53.702;10.208;2023-07-30T01:53:15;2.70;;;2.50;;
64894;SDS011;51588;53.702;10.208;2023-07-30T01:55:43;2.60;;;2.40;;
64894;SDS011;51588;53.702;10.208;2023-07-30T01:58:11;2.60;;;2.40;;
64894;SDS011;51588;53.702;10.208;2023-07-30T02:00:38;2.43;;;2.23;;
64894;SDS011;51588;53.702;10.208;2023-07-30T02:03:04;2.63;;;2.43;;
64894;SDS011;51588;53.702;10.208;2023-07-30T02:05:30;2.47;;;2.27;;
64894;SDS011;51588;53.702;10.208;2023-07-30T02:07:57;2.70;;;2.50;;
64894;SDS011;51588;53.702;10.208;2023-07-30T02:10:23;2.60;;;2.40;;
64894;SDS011;51588;53.702;10.208;2023-07-30T02:12:51;2.70;;;2.27;;
64894;SDS011;51588;53.702;10.208;2023-07-30T02:15:18;2.57;;;2.27;;
64894;SDS011;51588;53.702;10.208;2023-07-30T02:17:44;2.43;;;2.23;;
64894;SDS011;51588;53.702;10.208;2023-07-30T02:20:10;2.83;;;2.57;;
64894;SDS011;51588;53.702;10.208;2023-07-30T02:22:37;2.40;;;2.20;;
64894;SDS011;51588;53.702;10.208;2023-07-30T02:25:04;3.53;;;2.30;;
64894;SDS011;51588;53.702;10.208;2023-07-30T02:27:30;3.13;;;2.60;;
64894;SDS011;51588;53.702;10.208;2023-07-30T02:29:58;2.57;;;2.37;;
64894;SDS011;51588;53.702;10.208;2023-07-30T02:32:24;2.50;;;2.30;;
64894;SDS011;51588;53.702;10.208;2023-07-30T02:34:51;3.13;;;2.30;;
64894;SDS011;51588;53.702;10.208;2023-07-30T02:37:17;2.83;;;2.30;;
64894;SDS011;51588;53.702;10.208;2023-07-30T02:39:43;2.50;;;2.30;;
64894;SDS011;51588;53.702;10.208;2023-07-30T02:42:10;2.47;;;2.27;;
64894;SDS011;51588;53.702;10.208;2023-07-30T02:44:36;2.43;;;2.27;;
64894;SDS011;51588;53.702;10.208;2023-07-30T02:47:04;3.20;;;2.50;;
64894;SDS011;51588;53.702;10.208;2023-07-30T02:49:31;2.43;;;2.00;;
64894;SDS011;51588;53.702;10.208;2023-07-30T02:51:57;2.60;;;2.40;;
64894;SDS011;51588;53.702;10.208;2023-07-30T02:54:24;2.67;;;2.47;;
64894;SDS011;51588;53.702;10.208;2023-07-30T02:56:50;2.40;;;2.20;;
64894;SDS011;51588;53.702;10.208;2023-07-30T02:59:17;2.90;;;2.43;;
64894;SDS011;51588;53.702;10.208;2023-07-30T03:01:43;2.50;;;2.30;;
64894;SDS011;51588;53.702;10.208;2023-07-30T03:04:11;3.10;;;2.80;;
64894;SDS011;51588;53.702;10.208;2023-07-30T03:06:37;2.67;;;2.47;;
64894;SDS011;51588;53.702;10.208;2023-07-30T03:09:04;2.50;;;2.30;;
64894;SDS011;51588;53.702;10.208;2023-07-30T03:11:30;2.50;;;2.30;;
64894;SDS011;51588;53.702;10.208;2023-07-30T03:13:56;3.13;;;2.60;;
64894;SDS011;51588;53.702;10.208;2023-07-30T03:16:23;2.50;;;2.30;;
64894;SDS011;51588;53.702;10.208;2023-07-30T03:18:49;2.20;;;2.00;;
64894;SDS011;51588;53.702;10.208;2023-07-30T03:21:17;2.57;;;2.37;;
64894;SDS011;51588;53.702;10.208;2023-07-30T03:23:43;2.50;;;2.30;;
64894;SDS011;51588;53.702;10.208;2023-07-30T03:26:09;2.43;;;2.23;;
64894;SDS011;51588;53.702;10.208;2023-07-30T03:28:36;2.77;;;2.50;;
64894;SDS011;51588;53.702;10.208;2023-07-30T03:31:02;3.23;;;2.23;;
64894;SDS011;51588;53.702;10.208;2023-07-30T03:33:29;2.60;;;2.40;;
64894;SDS011;51588;53.702;10.208;2023-07-30T03:35:55;2.43;;;2.23;;
64894;SDS011;51588;53.702;10.208;2023-07-30T03:38:23;2.50;;;2.30;;
64894;SDS011;51588;53.702;10.208;2023-07-30T03:40:49;2.93;;;2.67;;
64894;SDS011;51588;53.702;10.208;2023-07-30T03:43:15;2.40;;;2.20;;
64894;SDS011;51588;53.702;10.208;2023-07-30T03:45:42;2.77;;;2.57;;
64894;SDS011;51588;53.702;10.208;2023-07-30T03:48:08;2.53;;;2.33;;
64894;SDS011;51588;53.702;10.208;2023-07-30T03:50:35;2.70;;;2.47;;
64894;SDS011;51588;53.702;10.208;2023-07-30T03:53:01;2.57;;;2.37;;
64894;SDS011;51588;53.702;10.208;2023-07-30T03:55:29;2.37;;;2.17;;
64894;SDS011;51588;53.702;10.208;2023-07-30T03:57:55;2.50;;;2.30;;
64894;SDS011;51588;53.702;10.208;2023-07-30T04:00:21;2.60;;;2.40;;
64894;SDS011;51588;53.702;10.208;2023-07-30T04:02:48;2.07;;;1.97;;
64894;SDS011;51588;53.702;10.208;2023-07-30T04:05:14;2.50;;;2.30;;
64894;SDS011;51588;53.702;10.208;2023-07-30T04:07:40;2.63;;;2.43;;
64894;SDS011;51588;53.702;10.208;2023-07-30T04:10:07;2.40;;;2.20;;
64894;SDS011;51588;53.702;10.208;2023-07-30T04:12:35;2.87;;;2.60;;
64894;SDS011;51588;53.702;10.208;2023-07-30T04:15:01;2.63;;;2.43;;
64894;SDS011;51588;53.702;10.208;2023-07-30T04:17:27;2.60;;;2.40;;
64894;SDS011;51588;53.702;10.208;2023-07-30T04:19:54;2.17;;;1.97;;
64894;SDS011;51588;53.702;10.208;2023-07-30T04:22:20;2.40;;;2.20;;
64894;SDS011;51588;53.702;10.208;2023-07-30T04:24:46;2.37;;;2.17;;
64894;SDS011;51588;53.702;10.208;2023-07-30T04:27:13;2.60;;;2.40;;
64894;SDS011;51588;53.702;10.208;2023-07-30T04:29:40;2.53;;;2.33;;
64894;SDS011;51588;53.702;10.208;2023-07-30T04:32:07;3.10;;;2.80;;
64894;SDS011;51588;53.702;10.208;2023-07-30T04:34:33;2.40;;;2.20;;
64894;SDS011;51588;53.702;10.208;2023-07-30T04:37:00;2.63;;;2.43;;
64894;SDS011;51588;53.702;10.208;2023-07-30T04:39:27;2.83;;;2.63;;
64894;SDS011;51588;53.702;10.208;2023-07-30T04:41:53;2.97;;;2.67;;
64894;SDS011;51588;53.702;10.208;2023-07-30T04:44:19;2.60;;;2.40;;
64894;SDS011;51588;53.702;10.208;2023-07-30T04:46:47;2.70;;;2.43;;
64894;SDS011;51588;53.702;10.208;2023-07-30T04:49:13;2.90;;;2.70;;
64894;SDS011;51588;53.702;10.208;2023-07-30T04:51:40;2.63;;;2.43;;
64894;SDS011;51588;53.702;10.208;2023-07-30T04:54:06;3.73;;;2.60;;
64894;SDS011;51588;53.702;10.208;2023-07-30T04:56:33;2.70;;;2.50;;
64894;SDS011;51588;53.702;10.208;2023-07-30T04:58:59;2.70;;;2.50;;
64894;SDS011;51588;53.702;10.208;2023-07-30T05:01:25;3.43;;;2.87;;
64894;SDS011;51588;53.702;10.208;2023-07-30T05:03:53;2.47;;;2.27;;
64894;SDS011;51588;53.702;10.208;2023-07-30T05:06:20;2.60;;;2.40;;
64894;SDS011;51588;53.702;10.208;2023-07-30T05:08:46;3.43;;;2.67;;
64894;SDS011;51588;53.702;10.208;2023-07-30T05:11:12;2.50;;;2.30;;
64894;SDS011;51588;53.702;10.208;2023-07-30T05:13:39;2.80;;;2.60;;
64894;SDS011;51588;53.702;10.208;2023-07-30T05:16:05;2.30;;;2.10;;
64894;SDS011;51588;53.702;10.208;2023-07-30T05:18:32;3.00;;;2.70;;
64894;SDS011;51588;53.702;10.208;2023-07-30T05:21:00;2.67;;;2.47;;
64894;SDS011;51588;53.702;10.208;2023-07-30T05:23:26;3.50;;;2.63;;
64894;SDS011;51588;53.702;10.208;2023-07-30T05:25:52;3.20;;;2.90;;
64894;SDS011;51588;53.702;10.208;2023-07-30T05:28:19;3.10;;;2.80;;
64894;SDS011;51588;53.702;10.208;2023-07-30T05:30:45;3.80;;;2.60;;
64894;SDS011;51588;53.702;10.208;2023-07-30T05:33:11;3.37;;;2.70;;
64894;SDS011;51588;53.702;10.208;2023-07-30T05:35:38;3.30;;;2.93;;
64894;SDS011;51588;53.702;10.208;2023-07-30T05:38:05;2.80;;;2.50;;
64894;SDS011;51588;53.702;10.208;2023-07-30T05:40:32;2.87;;;2.50;;
64894;SDS011;51588;53.702;10.208;2023-07-30T05:42:58;3.03;;;2.73;;
64894;SDS011;51588;53.702;10.208;2023-07-30T05:45:25;2.20;;;2.00;;
64894;SDS011;51588;53.702;10.208;2023-07-30T05:47:52;3.43;;;2.37;;
64894;SDS011;51588;53.702;10.208;2023-07-30T05:50:18;2.60;;;2.40;;
64894;SDS011;51588;53.702;10.208;2023-07-30T05:52:44;3.17;;;2.80;;
64894;SDS011;51588;53.702;10.208;2023-07-30T05:55:12;2.87;;;2.60;;
64894;SDS011;51588;53.702;10.208;2023-07-30T05:57:38;2.37;;;2.17;;
64894;SDS011;51588;53.702;10.208;2023-07-30T06:00:05;2.50;;;2.30;;
64894;SDS011;51588;53.702;10.208;2023-07-30T06:02:32;2.40;;;2.20;;
64894;SDS011;51588;53.702;10.208;2023-07-30T06:04:58;2.60;;;2.40;;
64894;SDS011;51588;53.702;10.208;2023-07-30T06:07:25;2.53;;;2.33;;
64894;SDS011;51588;53.702;10.208;2023-07-30T06:09:51;2.80;;;2.50;;
64894;SDS011;51588;53.702;10.208;2023-07-30T06:12:19;2.30;;;2.10;;
64894;SDS011;51588;53.702;10.208;2023-07-30T06:14:45;2.60;;;2.40;;
64894;SDS011;51588;53.702;10.208;2023-07-30T06:17:12;4.03;;;2.70;;
64894;SDS011;51588;53.702;10.208;2023-07-30T06:19:39;2.93;;;2.63;;
64894;SDS011;51588;53.702;10.208;2023-07-30T06:22:05;3.70;;;2.73;;
64894;SDS011;51588;53.702;10.208;2023-07-30T06:24:31;3.60;;;2.60;;
64894;SDS011;51588;53.702;10.208;2023-07-30T06:26:58;2.60;;;2.40;;
64894;SDS011;51588;53.702;10.208;2023-07-30T06:29:25;3.03;;;2.60;;
64894;SDS011;51588;53.702;10.208;2023-07-30T06:31:52;3.57;;;2.70;;
64894;SDS011;51588;53.702;10.208;2023-07-30T06:34:18;2.90;;;2.60;;
64894;SDS011;51588;53.702;10.208;2023-07-30T06:36:44;2.50;;;2.30;;
64894;SDS011;51588;53.702;10.208;2023-07-30T06:39:11;3.63;;;2.63;;
64894;SDS011;51588;53.702;10.208;2023-07-30T06:41:37;4.00;;;2.83;;
64894;SDS011;51588;53.702;10.208;2023-07-30T06:44:03;6.23;;;2.77;;
64894;SDS011;51588;53.702;10.208;2023-07-30T06:46:31;2.90;;;2.70;;
64894;SDS011;51588;53.702;10.208;2023-07-30T06:48:58;2.80;;;2.60;;
64894;SDS011;51588;53.702;10.208;2023-07-30T06:51:24;3.00;;;2.70;;
64894;SDS011;51588;53.702;10.208;2023-07-30T06:53:51;5.40;;;3.10;;
64894;SDS011;51588;53.702;10.208;2023-07-30T06:56:17;4.00;;;2.93;;
64894;SDS011;51588;53.702;10.208;2023-07-30T06:58:43;3.83;;;3.23;;
64894;SDS011;51588;53.702;10.208;2023-07-30T07:01:10;3.73;;;3.30;;
64894;SDS011;51588;53.702;10.208;2023-07-30T07:03:37;3.93;;;3.07;;
64894;SDS011;51588;53.702;10.208;2023-07-30T07:06:04;3.70;;;2.87;;
64894;SDS011;51588;53.702;10.208;2023-07-30T07:08:30;4.47;;;3.20;;
64894;SDS011;51588;53.702;10.208;2023-07-30T07:10:56;3.53;;;3.23;;
64894;SDS011;51588;53.702;10.208;2023-07-30T07:13:23;4.70;;;3.27;;
64894;SDS011;51588;53.702;10.208;2023-07-30T07:15:49;3.23;;;2.80;;
64894;SDS011;51588;53.702;10.208;2023-07-30T07:18:15;3.40;;;3.10;;
64894;SDS011;51588;53.702;10.208;2023-07-30T07:20:43;5.47;;;3.33;;
64894;SDS011;51588;53.702;10.208;2023-07-30T07:23:09;4.43;;;3.30;;
64894;SDS011;51588;53.702;10.208;2023-07-30T07:25:36;3.97;;;2.97;;
64894;SDS011;51588;53.702;10.208;2023-07-30T07:28:02;4.13;;;3.23;;
64894;SDS011;51588;53.702;10.208;2023-07-30T07:30:29;8.00;;;3.33;;
64894;SDS011;51588;53.702;10.208;2023-07-30T07:32:55;5.10;;;3.80;;
64894;SDS011;51588;53.702;10.208;2023-07-30T07:35:22;3.47;;;3.13;;
64894;SDS011;51588;53.702;10.208;2023-07-30T07:37:49;5.07;;;3.50;;
64894;SDS011;51588;53.702;10.208;2023-07-30T07:40:16;3.50;;;3.20;;
64894;SDS011;51588;53.702;10.208;2023-07-30T07:42:42;5.37;;;3.50;;
64894;SDS011;51588;53.702;10.208;2023-07-30T07:45:09;4.60;;;3.43;;
64894;SDS011;51588;53.702;10.208;2023-07-30T07:47:35;4.00;;;3.30;;
64894;SDS011;51588;53.702;10.208;2023-07-30T07:50:01;3.40;;;3.10;;
64894;SDS011;51588;53.702;10.208;2023-07-30T07:52:28;4.63;;;3.80;;
64894;SDS011;51588;53.702;10.208;2023-07-30T07:54:55;3.20;;;2.80;;
64894;SDS011;51588;53.702;10.208;2023-07-30T07:57:22;6.20;;;3.80;;
64894;SDS011;51588;53.702;10.208;2023-07-30T07:59:48;3.83;;;3.33;;
64894;SDS011;51588;53.702;10.208;2023-07-30T08:02:15;4.50;;;3.50;;
64894;SDS011;51588;53.702;10.208;2023-07-30T08:04:41;3.67;;;3.33;;
64894;SDS011;51588;53.702;10.208;2023-07-30T08:07:07;4.70;;;3.50;;
64894;SDS011;51588;53.702;10.208;2023-07-30T08:09:34;4.10;;;3.20;;
64894;SDS011;51588;53.702;10.208;2023-07-30T08:12:02;3.93;;;3.20;;
64894;SDS011;51588;53.702;10.208;2023-07-30T08:14:29;4.27;;;3.43;;
64894;SDS011;51588;53.702;10.208;2023-07-30T08:16:55;3.83;;;3.43;;
64894;SDS011;51588;53.702;10.208;2023-07-30T08:19:22;4.17;;;3.47;;
64894;SDS011;51588;53.702;10.208;2023-07-30T08:21:48;4.60;;;3.80;;
64894;SDS011;51588;53.702;10.208;2023-07-30T08:24:14;5.03;;;3.60;;
64894;SDS011;51588;53.702;10.208;2023-07-30T08:26:41;3.93;;;3.40;;
64894;SDS011;51588;53.702;10.208;2023-07-30T08:29:09;3.73;;;3.33;;
64894;SDS011;51588;53.702;10.208;2023-07-30T08:31:38;3.90;;;3.47;;
64894;SDS011;51588;53.702;10.208;2023-07-30T08:34:04;4.90;;;3.83;;
64894;SDS011;51588;53.702;10.208;2023-07-30T08:36:31;5.93;;;3.70;;
64894;SDS011;51588;53.702;10.208;2023-07-30T08:38:57;5.00;;;3.70;;
64894;SDS011;51588;53.702;10.208;2023-07-30T08:41:23;5.17;;;3.30;;
64894;SDS011;51588;53.702;10.208;2023-07-30T08:43:50;4.73;;;3.37;;
64894;SDS011;51588;53.702;10.208;2023-07-30T08:46:19;5.80;;;3.93;;
64894;SDS011;51588;53.702;10.208;2023-07-30T08:48:45;4.50;;;3.80;;
64894;SDS011;51588;53.702;10.208;2023-07-30T08:51:12;4.87;;;3.83;;
64894;SDS011;51588;53.702;10.208;2023-07-30T08:53:38;6.43;;;3.47;;
64894;SDS011;51588;53.702;10.208;2023-07-30T08:56:05;4.40;;;4.00;;
64894;SDS011;51588;53.702;10.208;2023-07-30T08:58:32;6.60;;;3.60;;
64894;SDS011;51588;53.702;10.208;2023-07-30T09:00:59;5.73;;;3.60;;
64894;SDS011;51588;53.702;10.208;2023-07-30T09:03:27;4.73;;;3.50;;
64894;SDS011;51588;53.702;10.208;2023-07-30T09:05:53;3.63;;;3.33;;
64894;SDS011;51588;53.702;10.208;2023-07-30T09:08:19;3.90;;;3.30;;
64894;SDS011;51588;53.702;10.208;2023-07-30T09:10:47;4.50;;;3.37;;
64894;SDS011;51588;53.702;10.208;2023-07-30T09:13:20;3.40;;;3.07;;
64894;SDS011;51588;53.702;10.208;2023-07-30T09:15:47;3.80;;;3.37;;
64894;SDS011;51588;53.702;10.208;2023-07-30T09:18:16;3.80;;;3.40;;
64894;SDS011;51588;53.702;10.208;2023-07-30T09:20:43;5.80;;;4.20;;
64894;SDS011;51588;53.702;10.208;2023-07-30T09:23:10;4.33;;;3.80;;
64894;SDS011;51588;53.702;10.208;2023-07-30T09:25:37;4.23;;;3.53;;
64894;SDS011;51588;53.702;10.208;2023-07-30T09:28:04;3.60;;;3.30;;
64894;SDS011;51588;53.702;10.208;2023-07-30T09:30:31;3.77;;;3.47;;
64894;SDS011;51588;53.702;10.208;2023-07-30T09:32:58;4.13;;;3.37;;
64894;SDS011;51588;53.702;10.208;2023-07-30T09:35:25;3.47;;;3.17;;
64894;SDS011;51588;53.702;10.208;2023-07-30T09:37:58;4.50;;;3.63;;
64894;SDS011;51588;53.702;10.208;2023-07-30T09:40:30;3.83;;;3.43;;
64894;SDS011;51588;53.702;10.208;2023-07-30T09:42:57;4.93;;;3.90;;
64894;SDS011;51588;53.702;10.208;2023-07-30T09:45:24;3.67;;;3.37;;
64894;SDS011;51588;53.702;10.208;2023-07-30T09:47:51;5.37;;;3.87;;
64894;SDS011;51588;53.702;10.208;2023-07-30T09:50:18;4.10;;;3.27;;
64894;SDS011;51588;53.702;10.208;2023-07-30T09:52:45;3.50;;;3.20;;
64894;SDS011;51588;53.702;10.208;2023-07-30T09:55:13;4.10;;;3.53;;
64894;SDS011;51588;53.702;10.208;2023-07-30T09:57:39;4.40;;;3.70;;
64894;SDS011;51588;53.702;10.208;2023-07-30T10:00:06;4.20;;;3.50;;
64894;SDS011;51588;53.702;10.208;2023-07-30T10:02:36;4.30;;;3.60;;
64894;SDS011;51588;53.702;10.208;2023-07-30T10:05:03;4.20;;;3.43;;
64894;SDS011;51588;53.702;10.208;2023-07-30T10:07:32;3.83;;;3.23;;
64894;SDS011;51588;53.702;10.208;2023-07-30T10:10:00;4.67;;;3.47;;
64894;SDS011;51588;53.702;10.208;2023-07-30T10:12:29;3.60;;;3.17;;
64894;SDS011;51588;53.702;10.208;2023-07-30T10:14:56;3.90;;;3.47;;
64894;SDS011;51588;53.702;10.208;2023-07-30T10:17:23;5.80;;;3.30;;
64894;SDS011;51588;53.702;10.208;2023-07-30T10:19:50;5.47;;;3.13;;
64894;SDS011;51588;53.702;10.208;2023-07-30T10:22:20;4.27;;;3.27;;
64894;SDS011;51588;53.702;10.208;2023-07-30T10:24:55;5.30;;;3.53;;
64894;SDS011;51588;53.702;10.208;2023-07-30T10:27:22;4.00;;;2.80;;
64894;SDS011;51588;53.702;10.208;2023-07-30T10:29:51;3.27;;;2.97;;
64894;SDS011;51588;53.702;10.208;2023-07-30T10:32:37;4.20;;;3.43;;
64894;SDS011;51588;53.702;10.208;2023-07-30T10:35:03;5.93;;;3.20;;
64894;SDS011;51588;53.702;10.208;2023-07-30T10:37:30;5.43;;;3.10;;
64894;SDS011;51588;53.702;10.208;2023-07-30T10:39:56;4.40;;;2.93;;
64894;SDS011;51588;53.702;10.208;2023-07-30T10:42:23;4.23;;;3.30;;
64894;SDS011;51588;53.702;10.208;2023-07-30T10:44:50;3.67;;;3.13;;
64894;SDS011;51588;53.702;10.208;2023-07-30T10:47:17;3.47;;;2.83;;
64894;SDS011;51588;53.702;10.208;2023-07-30T10:49:43;3.53;;;3.07;;
64894;SDS011;51588;53.702;10.208;2023-07-30T10:52:11;4.13;;;3.17;;
64894;SDS011;51588;53.702;10.208;2023-07-30T10:54:38;3.40;;;3.00;;
64894;SDS011;51588;53.702;10.208;2023-07-30T10:57:04;5.17;;;3.50;;
64894;SDS011;51588;53.702;10.208;2023-07-30T10:59:32;6.73;;;3.43;;
64894;SDS011;51588;53.702;10.208;2023-07-30T11:02:02;3.83;;;2.80;;
64894;SDS011;51588;53.702;10.208;2023-07-30T11:04:29;4.63;;;3.40;;
64894;SDS011;51588;53.702;10.208;2023-07-30T11:06:59;5.23;;;3.20;;
64894;SDS011;51588;53.702;10.208;2023-07-30T11:09:26;6.70;;;4.03;;
64894;SDS011;51588;53.702;10.208;2023-07-30T11:11:53;4.00;;;3.00;;
64894;SDS011;51588;53.702;10.208;2023-07-30T11:14:21;6.57;;;3.40;;
64894;SDS011;51588;53.702;10.208;2023-07-30T11:16:48;4.30;;;3.07;;
64894;SDS011;51588;53.702;10.208;2023-07-30T11:19:17;3.77;;;2.77;;
64894;SDS011;51588;53.702;10.208;2023-07-30T11:21:44;4.80;;;3.00;;
64894;SDS011;51588;53.702;10.208;2023-07-30T11:24:10;4.27;;;2.70;;
64894;SDS011;51588;53.702;10.208;2023-07-30T11:26:36;3.53;;;3.17;;
64894;SDS011;51588;53.702;10.208;2023-07-30T11:29:13;4.97;;;3.50;;
64894;SDS011;51588;53.702;10.208;2023-07-30T11:31:40;4.10;;;2.97;;
64894;SDS011;51588;53.702;10.208;2023-07-30T11:34:07;5.33;;;3.73;;
64894;SDS011;51588;53.702;10.208;2023-07-30T11:36:35;4.77;;;3.20;;
64894;SDS011;51588;53.702;10.208;2023-07-30T11:39:01;5.13;;;3.20;;
64894;SDS011;51588;53.702;10.208;2023-07-30T11:41:27;4.27;;;3.00;;
64894;SDS011;51588;53.702;10.208;2023-07-30T11:43:54;5.70;;;3.30;;
64894;SDS011;51588;53.702;10.208;2023-07-30T11:46:21;4.13;;;3.10;;
64894;SDS011;51588;53.702;10.208;2023-07-30T11:48:49;4.30;;;3.10;;
64894;SDS011;51588;53.702;10.208;2023-07-30T11:51:19;3.27;;;2.77;;
64894;SDS011;51588;53.702;10.208;2023-07-30T11:53:49;3.40;;;2.80;;
64894;SDS011;51588;53.702;10.208;2023-07-30T11:56:17;4.83;;;3.43;;
64894;SDS011;51588;53.702;10.208;2023-07-30T11:58:44;5.23;;;3.03;;
64894;SDS011;51588;53.702;10.208;2023-07-30T12:01:10;3.20;;;2.90;;
64894;SDS011;51588;53.702;10.208;2023-07-30T12:03:37;4.50;;;2.93;;
64894;SDS011;51588;53.702;10.208;2023-07-30T12:06:04;3.03;;;2.77;;
64894;SDS011;51588;53.702;10.208;2023-07-30T12:08:30;2.70;;;2.43;;
64894;SDS011;51588;53.702;10.208;2023-07-30T12:11:01;3.43;;;2.90;;
64894;SDS011;51588;53.702;10.208;2023-07-30T12:13:28;5.43;;;3.17;;
64894;SDS011;51588;53.702;10.208;2023-07-30T12:15:55;3.10;;;2.80;;
64894;SDS011;51588;53.702;10.208;2023-07-30T12:18:22;2.70;;;2.30;;
64894;SDS011;51588;53.702;10.208;2023-07-30T12:20:49;4.50;;;2.93;;
64894;SDS011;51588;53.702;10.208;2023-07-30T12:23:16;4.13;;;2.73;;
64894;SDS011;51588;53.702;10.208;2023-07-30T12:25:43;3.00;;;2.53;;
64894;SDS011;51588;53.702;10.208;2023-07-30T12:28:10;3.90;;;2.70;;
64894;SDS011;51588;53.702;10.208;2023-07-30T12:30:37;3.70;;;2.60;;
64894;SDS011;51588;53.702;10.208;2023-07-30T12:33:03;3.10;;;2.60;;
64894;SDS011;51588;53.702;10.208;2023-07-30T12:35:30;3.77;;;2.70;;
64894;SDS011;51588;53.702;10.208;2023-07-30T12:37:56;2.43;;;2.23;;
64894;SDS011;51588;53.702;10.208;2023-07-30T12:40:23;3.80;;;3.00;;
64894;SDS011;51588;53.702;10.208;2023-07-30T12:42:49;3.53;;;2.77;;
64894;SDS011;51588;53.702;10.208;2023-07-30T12:45:17;4.33;;;2.53;;
64894;SDS011;51588;53.702;10.208;2023-07-30T12:47:43;2.90;;;2.40;;
64894;SDS011;51588;53.702;10.208;2023-07-30T12:50:10;4.73;;;2.60;;
64894;SDS011;51588;53.702;10.208;2023-07-30T12:52:37;3.97;;;2.80;;
64894;SDS011;51588;53.702;10.208;2023-07-30T12:55:03;2.63;;;2.30;;
64894;SDS011;51588;53.702;10.208;2023-07-30T12:57:30;3.00;;;2.67;;
64894;SDS011;51588;53.702;10.208;2023-07-30T12:59:56;3.93;;;2.53;;
64894;SDS011;51588;53.702;10.208;2023-07-30T13:02:24;3.97;;;2.47;;
64894;SDS011;51588;53.702;10.208;2023-07-30T13:04:50;3.13;;;2.30;;
64894;SDS011;51588;53.702;10.208;2023-07-30T13:07:17;3.03;;;2.70;;
64894;SDS011;51588;53.702;10.208;2023-07-30T13:09:45;3.53;;;2.50;;
64894;SDS011;51588;53.702;10.208;2023-07-30T13:12:11;4.03;;;2.70;;
64894;SDS011;51588;53.702;10.208;2023-07-30T13:14:38;4.10;;;2.63;;
64894;SDS011;51588;53.702;10.208;2023-07-30T13:17:04;3.43;;;2.13;;
64894;SDS011;51588;53.702;10.208;2023-07-30T13:19:32;3.80;;;2.60;;
64894;SDS011;51588;53.702;10.208;2023-07-30T13:21:59;3.47;;;2.50;;
64894;SDS011;51588;53.702;10.208;2023-07-30T13:24:26;4.20;;;2.80;;
64894;SDS011;51588;53.702;10.208;2023-07-30T13:26:54;3.73;;;2.73;;
64894;SDS011;51588;53.702;10.208;2023-07-30T13:29:21;3.50;;;2.20;;
64894;SDS011;51588;53.702;10.208;2023-07-30T13:31:47;3.63;;;2.40;;
64894;SDS011;51588;53.702;10.208;2023-07-30T13:34:13;5.10;;;2.40;;
64894;SDS011;51588;53.702;10.208;2023-07-30T13:36:41;3.60;;;2.40;;
64894;SDS011;51588;53.702;10.208;2023-07-30T13:39:08;3.60;;;2.80;;
64894;SDS011;51588;53.702;10.208;2023-07-30T13:41:34;3.40;;;2.17;;
64894;SDS011;51588;53.702;10.208;2023-07-30T13:44:01;3.80;;;2.77;;
64894;SDS011;51588;53.702;10.208;2023-07-30T13:46:27;3.07;;;2.20;;
64894;SDS011;51588;53.702;10.208;2023-07-30T13:48:53;2.90;;;2.60;;
64894;SDS011;51588;53.702;10.208;2023-07-30T13:51:20;4.90;;;2.30;;
64894;SDS011;51588;53.702;10.208;2023-07-30T13:53:47;3.50;;;2.60;;
64894;SDS011;51588;53.702;10.208;2023-07-30T13:56:14;3.40;;;2.30;;
64894;SDS011;51588;53.702;10.208;2023-07-30T13:58:40;4.13;;;2.57;;
64894;SDS011;51588;53.702;10.208;2023-07-30T14:01:06;2.07;;;1.80;;
64894;SDS011;51588;53.702;10.208;2023-07-30T14:03:34;2.77;;;2.23;;
64894;SDS011;51588;53.702;10.208;2023-07-30T14:06:00;3.40;;;2.10;;
64894;SDS011;51588;53.702;10.208;2023-07-30T14:08:27;2.50;;;2.30;;
64894;SDS011;51588;53.702;10.208;2023-07-30T14:10:54;2.70;;;2.23;;
64894;SDS011;51588;53.702;10.208;2023-07-30T14:13:22;2.57;;;2.30;;
64894;SDS011;51588;53.702;10.208;2023-07-30T14:15:49;2.20;;;2.00;;
64894;SDS011;51588;53.702;10.208;2023-07-30T14:18:15;3.10;;;2.30;;
64894;SDS011;51588;53.702;10.208;2023-07-30T14:20:41;2.43;;;2.00;;
64894;SDS011;51588;53.702;10.208;2023-07-30T14:23:08;2.70;;;2.03;;
64894;SDS011;51588;53.702;10.208;2023-07-30T14:25:34;2.33;;;2.03;;
64894;SDS011;51588;53.702;10.208;2023-07-30T14:28:02;2.50;;;1.93;;
64894;SDS011;51588;53.702;10.208;2023-07-30T14:30:28;2.40;;;1.83;;